createdAt,value
2022-12-27T00:02:26.301Z,1.87
2022-12-27T00:04:55.095Z,1.00
2022-12-27T00:07:23.425Z,2.10
2022-12-27T00:09:51.853Z,1.10
2022-12-27T00:12:20.441Z,0.67
2022-12-27T00:14:49.002Z,2.80
2022-12-27T00:17:18.622Z,1.93
2022-12-27T00:19:47.264Z,0.40
2022-12-27T00:22:15.849Z,2.00
2022-12-27T00:24:44.151Z,1.00
2022-12-27T00:27:12.496Z,1.03
2022-12-27T00:29:41.529Z,0.77
2022-12-27T00:32:10.113Z,0.93
2022-12-27T00:34:39.814Z,0.80
2022-12-27T00:37:08.583Z,0.47
2022-12-27T00:39:37.189Z,0.70
2022-12-27T00:42:05.982Z,3.10
2022-12-27T00:44:34.385Z,2.40
2022-12-27T00:47:02.662Z,1.07
2022-12-27T00:49:31.282Z,2.27
2022-12-27T00:52:00.958Z,0.87
2022-12-27T00:54:29.418Z,2.97
2022-12-27T00:56:58.037Z,0.43
2022-12-27T00:59:26.684Z,0.80
2022-12-27T01:01:55.373Z,0.80
2022-12-27T01:04:24.059Z,0.40
2022-12-27T01:06:52.701Z,4.00
2022-12-27T01:09:22.331Z,0.50
2022-12-27T01:11:50.549Z,1.83
2022-12-27T01:14:18.851Z,0.63
2022-12-27T01:16:47.398Z,0.80
2022-12-27T01:19:16.181Z,0.90
2022-12-27T01:21:44.865Z,1.33
2022-12-27T01:24:13.483Z,3.43
2022-12-27T01:26:43.164Z,1.17
2022-12-27T01:29:13.794Z,4.00
2022-12-27T01:31:42.188Z,1.37
2022-12-27T01:34:10.823Z,1.53
2022-12-27T01:36:39.198Z,4.50
2022-12-27T01:39:08.454Z,1.13
2022-12-27T01:41:58.021Z,1.17
2022-12-27T01:44:57.345Z,0.90
2022-12-27T01:47:36.210Z,1.00
2022-12-27T01:50:17.223Z,2.67
2022-12-27T01:52:54.838Z,1.23
2022-12-27T01:55:29.948Z,1.57
2022-12-27T01:58:02.271Z,1.10
2022-12-27T02:00:32.404Z,1.43
2022-12-27T02:03:05.199Z,1.37
2022-12-27T02:05:35.551Z,2.67
2022-12-27T02:08:27.034Z,0.90
2022-12-27T02:10:56.812Z,1.20
2022-12-27T02:13:26.040Z,2.10
2022-12-27T02:15:55.695Z,1.97
2022-12-27T02:18:24.687Z,1.57
2022-12-27T02:21:33.656Z,3.67
2022-12-27T02:24:25.246Z,0.87
2022-12-27T02:27:03.034Z,3.13
2022-12-27T02:30:02.980Z,3.10
2022-12-27T02:32:37.680Z,1.87
2022-12-27T02:35:15.364Z,2.33
2022-12-27T02:37:50.272Z,3.07
2022-12-27T02:40:41.799Z,1.30
2022-12-27T02:43:28.762Z,3.87
2022-12-27T02:46:24.147Z,1.23
2022-12-27T02:49:13.266Z,2.93
2022-12-27T02:52:19.006Z,1.50
2022-12-27T02:55:13.479Z,1.53
2022-12-27T02:57:52.873Z,2.53
2022-12-27T03:00:47.611Z,1.60
2022-12-27T03:03:44.732Z,3.77
2022-12-27T03:06:47.465Z,2.50
2022-12-27T03:10:00.304Z,2.47
2022-12-27T03:13:02.771Z,3.00
2022-12-27T03:16:02.121Z,2.60
2022-12-27T03:18:58.683Z,2.00
2022-12-27T03:21:50.080Z,1.80
2022-12-27T03:24:39.544Z,2.07
2022-12-27T03:27:18.073Z,2.33
2022-12-27T03:30:12.499Z,2.33
2022-12-27T03:33:04.752Z,2.47
2022-12-27T03:35:42.762Z,4.07
2022-12-27T03:38:13.987Z,2.03
2022-12-27T03:41:07.889Z,2.20
2022-12-27T03:43:39.207Z,1.70
2022-12-27T03:46:34.359Z,1.87
2022-12-27T03:49:22.230Z,1.87
2022-12-27T03:51:58.345Z,3.53
2022-12-27T03:54:30.633Z,1.00
2022-12-27T03:57:03.117Z,1.60
2022-12-27T03:59:31.996Z,2.83
2022-12-27T04:02:02.570Z,1.87
2022-12-27T04:04:31.593Z,2.07
2022-12-27T04:07:01.313Z,3.90
2022-12-27T04:09:46.947Z,3.33
2022-12-27T04:12:32.788Z,2.80
2022-12-27T04:15:18.964Z,1.57
2022-12-27T04:18:04.978Z,3.83
2022-12-27T04:20:51.322Z,4.27
2022-12-27T04:23:38.508Z,2.87
2022-12-27T04:26:24.233Z,3.70
2022-12-27T04:29:10.419Z,3.50
2022-12-27T04:31:56.843Z,1.70
2022-12-27T04:34:43.909Z,2.50
2022-12-27T04:37:15.145Z,1.47
2022-12-27T04:40:08.784Z,1.27
2022-12-27T04:42:53.839Z,2.80
2022-12-27T04:45:54.946Z,0.80
2022-12-27T04:48:41.127Z,1.60
2022-12-27T04:51:28.094Z,3.37
2022-12-27T04:54:14.396Z,1.80
2022-12-27T04:56:44.039Z,1.33
2022-12-27T04:59:29.908Z,2.80
2022-12-27T05:02:04.634Z,0.93
2022-12-27T05:04:36.633Z,0.90
2022-12-27T05:07:21.521Z,1.77
2022-12-27T05:10:07.821Z,1.80
2022-12-27T05:12:55.096Z,1.03
2022-12-27T05:15:23.738Z,4.00
2022-12-27T05:17:52.427Z,1.27
2022-12-27T05:20:21.108Z,2.80
2022-12-27T05:23:07.289Z,2.17
2022-12-27T05:25:37.045Z,3.80
2022-12-27T05:28:08.762Z,2.27
2022-12-27T05:30:39.366Z,5.40
2022-12-27T05:33:08.542Z,3.60
2022-12-27T05:35:37.195Z,3.33
2022-12-27T05:38:07.390Z,3.27
2022-12-27T05:40:36.643Z,1.50
2022-12-27T05:43:06.921Z,2.00
2022-12-27T05:45:35.579Z,2.10
2022-12-27T05:48:04.275Z,4.53
2022-12-27T05:50:32.928Z,4.47
2022-12-27T05:53:18.939Z,3.40
2022-12-27T05:55:55.697Z,3.80
2022-12-27T05:58:26.511Z,2.87
2022-12-27T06:00:55.187Z,2.47
2022-12-27T06:03:24.344Z,3.03
2022-12-27T06:05:53.038Z,2.30
2022-12-27T06:08:21.662Z,3.67
2022-12-27T06:10:50.310Z,4.23
2022-12-27T06:13:18.918Z,2.97
2022-12-27T06:15:48.532Z,6.83
2022-12-27T06:18:17.118Z,3.27
2022-12-27T06:20:45.739Z,4.80
2022-12-27T06:23:14.323Z,3.63
2022-12-27T06:25:42.602Z,2.47
2022-12-27T06:28:11.215Z,4.37
2022-12-27T06:30:39.808Z,10.63
2022-12-27T06:33:09.444Z,5.37
2022-12-27T06:35:38.114Z,3.47
2022-12-27T06:38:06.696Z,4.40
2022-12-27T06:40:35.301Z,4.03
2022-12-27T06:43:04.004Z,5.57
2022-12-27T06:45:33.170Z,3.43
2022-12-27T06:48:01.564Z,3.50
2022-12-27T06:50:31.974Z,3.13
2022-12-27T06:53:00.574Z,2.83
2022-12-27T06:55:28.863Z,4.17
2022-12-27T06:57:57.423Z,4.03
2022-12-27T07:00:26.051Z,4.23
2022-12-27T07:02:55.670Z,3.97
2022-12-27T07:05:24.419Z,3.13
2022-12-27T07:07:54.705Z,6.40
2022-12-27T07:10:23.358Z,3.10
2022-12-27T07:12:51.943Z,3.70
2022-12-27T07:15:20.593Z,4.27
2022-12-27T07:17:49.155Z,6.07
2022-12-27T07:20:17.876Z,6.83
2022-12-27T07:22:46.141Z,11.50
2022-12-27T07:25:15.984Z,8.63
2022-12-27T07:27:44.343Z,7.93
2022-12-27T07:30:13.073Z,15.40
2022-12-27T07:32:41.704Z,19.90
2022-12-27T07:35:10.582Z,15.27
2022-12-27T07:37:39.299Z,13.23
2022-12-27T07:40:10.695Z,16.97
2022-12-27T07:42:40.298Z,16.80
2022-12-27T07:45:10.532Z,15.73
2022-12-27T07:47:38.793Z,13.23
2022-12-27T07:50:08.304Z,14.20
2022-12-27T07:52:36.774Z,14.57
2022-12-27T07:55:05.875Z,15.30
2022-12-27T07:57:34.468Z,17.60
2022-12-27T08:00:06.280Z,15.20
2022-12-27T08:02:40.079Z,13.27
2022-12-27T08:05:09.305Z,15.07
2022-12-27T08:07:39.453Z,14.87
2022-12-27T08:10:08.962Z,16.10
2022-12-27T08:12:37.644Z,13.93
2022-12-27T08:15:08.833Z,12.07
2022-12-27T08:17:37.659Z,12.10
2022-12-27T08:20:07.265Z,8.33
2022-12-27T08:22:35.881Z,9.57
2022-12-27T08:25:04.946Z,9.17
2022-12-27T08:27:33.581Z,8.63
2022-12-27T08:30:02.245Z,7.63
2022-12-27T08:32:32.269Z,7.87
2022-12-27T08:35:18.342Z,5.97
2022-12-27T08:37:49.152Z,5.93
2022-12-27T08:40:17.965Z,5.13
2022-12-27T08:42:46.885Z,5.37
2022-12-27T08:45:15.897Z,6.73
2022-12-27T08:47:45.832Z,3.93
2022-12-27T08:50:14.071Z,6.00
2022-12-27T08:52:43.337Z,8.07
2022-12-27T08:55:12.250Z,6.77
2022-12-27T08:57:40.945Z,7.07
2022-12-27T09:00:11.123Z,5.43
2022-12-27T09:02:39.840Z,5.67
2022-12-27T09:05:10.299Z,8.37
2022-12-27T09:07:38.867Z,5.90
2022-12-27T09:10:08.743Z,7.27
2022-12-27T09:12:37.425Z,6.67
2022-12-27T09:15:07.196Z,5.67
2022-12-27T09:17:35.878Z,5.27
2022-12-27T09:20:04.751Z,4.63
2022-12-27T09:22:35.416Z,6.00
2022-12-27T09:25:03.679Z,5.17
2022-12-27T09:27:32.487Z,6.90
2022-12-27T09:30:01.108Z,8.80
2022-12-27T09:32:30.484Z,7.10
2022-12-27T09:34:59.051Z,6.00
2022-12-27T09:37:27.876Z,3.37
2022-12-27T09:39:57.793Z,4.87
2022-12-27T09:42:53.547Z,6.43
2022-12-27T09:45:37.893Z,4.27
2022-12-27T09:48:13.026Z,3.97
2022-12-27T09:50:52.786Z,4.90
2022-12-27T09:53:28.048Z,3.87
2022-12-27T09:55:58.918Z,4.23
2022-12-27T09:58:42.224Z,5.00
2022-12-27T10:01:24.702Z,4.73
2022-12-27T10:03:54.231Z,6.20
2022-12-27T10:06:49.398Z,6.83
2022-12-27T10:09:42.726Z,7.20
2022-12-27T10:12:36.038Z,3.87
2022-12-27T10:15:20.420Z,5.27
2022-12-27T10:18:02.276Z,2.60
2022-12-27T10:20:47.079Z,3.50
2022-12-27T10:23:22.783Z,3.53
2022-12-27T10:25:59.176Z,7.30
2022-12-27T10:28:38.453Z,3.83
2022-12-27T10:31:08.073Z,4.83
2022-12-27T10:33:36.935Z,4.90
2022-12-27T10:36:13.768Z,5.97
2022-12-27T10:38:42.209Z,7.57
2022-12-27T10:41:34.540Z,6.13
2022-12-27T10:44:10.443Z,5.47
2022-12-27T10:46:40.008Z,3.53
2022-12-27T10:49:23.954Z,3.27
2022-12-27T10:51:54.937Z,4.67
2022-12-27T10:54:26.758Z,4.97
2022-12-27T10:56:55.887Z,4.27
2022-12-27T10:59:28.265Z,3.40
2022-12-27T11:02:19.750Z,3.03
2022-12-27T11:04:59.513Z,2.67
2022-12-27T11:07:31.990Z,1.77
2022-12-27T11:10:09.988Z,3.27
2022-12-27T11:12:38.563Z,3.60
2022-12-27T11:15:20.239Z,4.93
2022-12-27T11:17:53.239Z,2.93
2022-12-27T11:20:27.411Z,5.73
2022-12-27T11:23:00.668Z,4.10
2022-12-27T11:25:31.404Z,4.47
2022-12-27T11:28:07.503Z,3.60
2022-12-27T11:30:42.413Z,4.07
2022-12-27T11:33:24.726Z,5.03
2022-12-27T11:35:58.184Z,3.83
2022-12-27T11:38:29.514Z,2.97
2022-12-27T11:41:06.652Z,3.10
2022-12-27T11:43:48.681Z,2.20
2022-12-27T11:46:29.927Z,4.30
2022-12-27T11:48:59.869Z,5.57
2022-12-27T11:51:47.707Z,4.50
2022-12-27T11:54:55.054Z,2.77
2022-12-27T11:57:48.248Z,5.27
2022-12-27T12:00:21.853Z,2.20
2022-12-27T12:03:47.739Z,3.80
2022-12-27T12:06:22.619Z,3.23
2022-12-27T12:09:21.046Z,11.00
2022-12-27T12:12:25.448Z,3.33
2022-12-27T12:15:31.194Z,3.20
2022-12-27T12:18:25.332Z,6.03
2022-12-27T12:21:27.597Z,4.30
2022-12-27T12:24:22.852Z,3.77
2022-12-27T12:27:19.523Z,3.73
2022-12-27T12:30:13.551Z,3.37
2022-12-27T12:33:01.669Z,3.50
2022-12-27T12:35:53.612Z,3.40
2022-12-27T12:38:28.392Z,1.77
2022-12-27T12:41:32.369Z,1.80
2022-12-27T12:44:33.125Z,2.57
2022-12-27T12:47:24.118Z,8.30
2022-12-27T12:50:13.182Z,1.77
2022-12-27T12:53:04.119Z,2.37
2022-12-27T12:56:03.258Z,4.97
2022-12-27T12:58:52.576Z,3.27
2022-12-27T13:01:52.700Z,3.93
2022-12-27T13:04:52.964Z,4.80
2022-12-27T13:07:47.391Z,4.17
2022-12-27T13:11:00.511Z,5.00
2022-12-27T13:13:47.798Z,4.30
2022-12-27T13:16:31.631Z,3.97
2022-12-27T13:19:17.514Z,5.13
2022-12-27T13:22:03.228Z,4.03
2022-12-27T13:24:52.344Z,2.63
2022-12-27T13:27:36.382Z,5.80
2022-12-27T13:30:19.750Z,3.63
2022-12-27T13:33:20.818Z,2.93
2022-12-27T13:36:04.988Z,3.23
2022-12-27T13:38:45.256Z,3.13
2022-12-27T13:41:30.872Z,3.07
2022-12-27T13:44:31.011Z,2.53
2022-12-27T13:47:27.849Z,3.33
2022-12-27T13:50:44.954Z,4.17
2022-12-27T13:53:59.775Z,3.53
2022-12-27T13:56:54.838Z,2.93
2022-12-27T14:00:04.268Z,5.47
2022-12-27T14:03:30.623Z,3.93
2022-12-27T14:06:23.787Z,7.23
2022-12-27T14:09:29.141Z,6.90
2022-12-27T14:12:41.626Z,8.03
2022-12-27T14:15:20.056Z,8.77
2022-12-27T14:18:05.773Z,11.70
2022-12-27T14:21:07.618Z,10.57
2022-12-27T14:23:54.596Z,11.30
2022-12-27T14:27:25.859Z,9.33
2022-12-27T14:30:33.032Z,8.83
2022-12-27T14:34:01.174Z,6.40
2022-12-27T14:37:20.606Z,5.87
2022-12-27T14:40:34.872Z,5.60
2022-12-27T14:44:21.963Z,7.33
2022-12-27T14:47:34.868Z,5.33
2022-12-27T14:50:57.268Z,6.60
2022-12-27T14:54:40.548Z,7.87
2022-12-27T14:57:27.505Z,6.30
2022-12-27T15:00:14.493Z,7.57
2022-12-27T15:03:14.799Z,5.43
2022-12-27T15:06:05.300Z,4.43
2022-12-27T15:09:07.507Z,6.93
2022-12-27T15:11:58.970Z,5.57
2022-12-27T15:14:55.339Z,7.40
2022-12-27T15:17:40.625Z,5.80
2022-12-27T15:20:28.171Z,6.73
2022-12-27T15:23:09.420Z,5.87
2022-12-27T15:25:52.874Z,8.30
2022-12-27T15:28:40.074Z,8.33
2022-12-27T15:31:22.407Z,5.90
2022-12-27T15:34:20.240Z,8.37
2022-12-27T15:36:52.196Z,7.53
2022-12-27T15:39:51.803Z,8.77
2022-12-27T15:42:52.445Z,12.47
2022-12-27T15:45:43.656Z,7.87
2022-12-27T15:48:49.986Z,14.23
2022-12-27T15:51:35.917Z,15.03
2022-12-27T15:54:29.970Z,12.57
2022-12-27T15:57:37.986Z,11.07
2022-12-27T16:00:18.646Z,8.30
2022-12-27T16:02:56.394Z,5.77
2022-12-27T16:05:45.704Z,8.07
2022-12-27T16:08:38.809Z,13.23
2022-12-27T16:11:13.548Z,15.17
2022-12-27T16:13:49.813Z,22.93
2022-12-27T16:17:05.858Z,27.17
2022-12-27T16:20:01.538Z,17.87
2022-12-27T16:22:37.109Z,12.63
2022-12-27T16:25:31.285Z,14.33
2022-12-27T16:28:09.018Z,20.60
2022-12-27T16:30:51.121Z,13.97
2022-12-27T16:33:37.974Z,13.43
2022-12-27T16:36:24.589Z,22.13
2022-12-27T16:39:27.718Z,19.40
2022-12-27T16:42:09.768Z,13.90
2022-12-27T16:45:02.855Z,8.40
2022-12-27T16:47:58.746Z,4.67
2022-12-27T16:50:55.455Z,7.37
2022-12-27T16:54:03.248Z,6.03
2022-12-27T16:56:34.513Z,5.20
2022-12-27T16:59:03.146Z,4.40
2022-12-27T17:02:03.989Z,5.40
2022-12-27T17:04:58.425Z,7.40
2022-12-27T17:08:14.365Z,5.70
2022-12-27T17:11:05.119Z,3.90
2022-12-27T17:13:49.909Z,4.60
2022-12-27T17:16:24.241Z,3.77
2022-12-27T17:18:58.473Z,3.13
2022-12-27T17:21:31.215Z,4.77
2022-12-27T17:24:02.622Z,4.67
2022-12-27T17:26:59.494Z,9.10
2022-12-27T17:29:53.302Z,9.73
2022-12-27T17:32:39.433Z,10.50
2022-12-27T17:35:27.249Z,6.20
2022-12-27T17:38:22.936Z,4.67
2022-12-27T17:41:01.280Z,5.17
2022-12-27T17:44:00.010Z,5.70
2022-12-27T17:46:40.849Z,4.37
2022-12-27T17:49:11.789Z,4.23
2022-12-27T17:52:06.709Z,5.33
2022-12-27T17:54:52.990Z,5.40
2022-12-27T17:57:39.466Z,5.27
2022-12-27T18:00:23.532Z,4.90
2022-12-27T18:02:54.622Z,5.13
2022-12-27T18:05:28.490Z,5.20
2022-12-27T18:08:05.327Z,3.60
2022-12-27T18:10:37.157Z,4.53
2022-12-27T18:13:08.340Z,4.40
2022-12-27T18:15:44.149Z,5.33
2022-12-27T18:18:21.887Z,3.20
2022-12-27T18:20:57.423Z,3.77
2022-12-27T18:23:27.895Z,10.03
2022-12-27T18:26:02.553Z,4.63
2022-12-27T18:28:34.031Z,5.43
2022-12-27T18:31:14.892Z,5.57
2022-12-27T18:33:47.545Z,2.70
2022-12-27T18:36:26.918Z,3.73
2022-12-27T18:39:00.815Z,5.60
2022-12-27T18:41:40.100Z,7.27
2022-12-27T18:44:20.022Z,6.13
2022-12-27T18:46:54.954Z,5.40
2022-12-27T18:49:27.232Z,4.83
2022-12-27T18:51:56.383Z,9.20
2022-12-27T18:54:34.853Z,7.17
2022-12-27T18:57:06.524Z,5.17
2022-12-27T18:59:37.143Z,6.10
2022-12-27T19:02:36.065Z,9.63
2022-12-27T19:05:24.736Z,8.07
2022-12-27T19:07:59.132Z,5.90
2022-12-27T19:10:30.060Z,6.17
2022-12-27T19:12:59.511Z,6.83
2022-12-27T19:15:37.335Z,7.30
2022-12-27T19:18:21.364Z,7.40
2022-12-27T19:20:57.491Z,6.00
2022-12-27T19:23:33.621Z,7.27
2022-12-27T19:26:08.248Z,5.23
2022-12-27T19:28:36.993Z,5.63
2022-12-27T19:31:19.857Z,5.17
2022-12-27T19:33:54.243Z,6.00
2022-12-27T19:36:28.942Z,4.53
2022-12-27T19:38:57.722Z,4.90
2022-12-27T19:41:27.251Z,5.67
2022-12-27T19:43:56.790Z,7.27
2022-12-27T19:46:30.954Z,5.43
2022-12-27T19:49:40.197Z,16.77
2022-12-27T19:51:50.044Z,10.23
2022-12-27T19:54:22.031Z,8.83
2022-12-27T19:56:50.827Z,9.03
2022-12-27T19:59:25.207Z,6.13
2022-12-27T20:01:54.313Z,7.97
2022-12-27T20:04:24.309Z,8.87
2022-12-27T20:06:54.536Z,9.47
2022-12-27T20:09:23.673Z,5.63
2022-12-27T20:11:52.418Z,10.20
2022-12-27T20:14:20.689Z,7.43
2022-12-27T20:16:49.453Z,7.30
2022-12-27T20:19:20.168Z,11.80
2022-12-27T20:21:49.959Z,6.23
2022-12-27T20:24:18.549Z,8.97
2022-12-27T20:26:47.217Z,7.60
2022-12-27T20:29:16.092Z,12.13
2022-12-27T20:31:48.551Z,10.07
2022-12-27T20:34:17.512Z,10.77
2022-12-27T20:36:45.994Z,7.60
2022-12-27T20:39:16.496Z,17.73
2022-12-27T20:41:45.179Z,26.77
2022-12-27T20:44:14.721Z,11.13
2022-12-27T20:46:43.213Z,11.83
2022-12-27T20:49:11.827Z,7.63
2022-12-27T20:51:41.593Z,9.13
2022-12-27T20:54:15.197Z,13.03
2022-12-27T20:56:43.504Z,8.20
2022-12-27T20:59:12.069Z,11.00
2022-12-27T21:01:40.894Z,11.63
2022-12-27T21:04:10.431Z,11.73
2022-12-27T21:06:39.117Z,9.53
2022-12-27T21:09:09.241Z,10.23
2022-12-27T21:11:38.945Z,9.73
2022-12-27T21:14:07.637Z,10.67
2022-12-27T21:16:36.791Z,12.93
2022-12-27T21:19:06.709Z,11.23
2022-12-27T21:21:37.898Z,13.57
2022-12-27T21:24:10.769Z,12.57
2022-12-27T21:26:41.911Z,10.73
2022-12-27T21:29:12.288Z,10.23
2022-12-27T21:31:41.485Z,10.37
2022-12-27T21:34:10.537Z,9.13
2022-12-27T21:36:39.461Z,16.50
2022-12-27T21:39:08.666Z,9.90
2022-12-27T21:41:40.980Z,12.40
2022-12-27T21:44:15.372Z,10.23
2022-12-27T21:46:48.509Z,10.03
2022-12-27T21:49:20.298Z,12.50
2022-12-27T21:51:49.943Z,10.20
2022-12-27T21:54:19.234Z,10.47
2022-12-27T21:56:50.809Z,10.83
2022-12-27T21:59:24.205Z,13.27
2022-12-27T22:01:53.406Z,13.13
2022-12-27T22:04:39.856Z,13.30
2022-12-27T22:07:13.552Z,13.97
2022-12-27T22:09:42.475Z,13.23
2022-12-27T22:12:14.010Z,11.10
2022-12-27T22:14:47.014Z,11.97
2022-12-27T22:17:26.002Z,12.87
2022-12-27T22:20:01.511Z,11.60
2022-12-27T22:22:30.750Z,15.27
2022-12-27T22:25:13.486Z,13.67
2022-12-27T22:28:15.142Z,10.83
2022-12-27T22:30:44.088Z,12.00
2022-12-27T22:33:13.356Z,11.97
2022-12-27T22:35:42.166Z,14.50
2022-12-27T22:38:11.018Z,13.20
2022-12-27T22:40:46.109Z,9.07
2022-12-27T22:43:17.532Z,11.30
2022-12-27T22:45:53.489Z,8.77
2022-12-27T22:48:22.806Z,11.37
2022-12-27T22:51:05.504Z,9.80
2022-12-27T22:53:34.620Z,12.37
2022-12-27T22:56:04.807Z,13.70
2022-12-27T22:58:36.421Z,11.87
2022-12-27T23:01:11.236Z,12.63
2022-12-27T23:03:42.587Z,12.17
2022-12-27T23:06:34.659Z,14.37
2022-12-27T23:09:03.868Z,12.07
2022-12-27T23:11:40.612Z,19.30
2022-12-27T23:14:12.900Z,13.73
2022-12-27T23:16:45.523Z,15.00
2022-12-27T23:19:19.348Z,16.30
2022-12-27T23:22:01.728Z,13.27
2022-12-27T23:24:34.221Z,16.83
2022-12-27T23:27:09.201Z,15.67
2022-12-27T23:29:39.697Z,15.40
2022-12-27T23:32:08.597Z,14.97
2022-12-27T23:34:37.374Z,12.73
2022-12-27T23:37:06.160Z,15.13
2022-12-27T23:39:35.409Z,13.87
2022-12-27T23:42:04.244Z,13.67
2022-12-27T23:44:34.852Z,16.10
2022-12-27T23:47:06.559Z,12.17
2022-12-27T23:49:37.435Z,15.33
2022-12-27T23:52:06.494Z,14.37
2022-12-27T23:54:35.500Z,13.33
2022-12-27T23:57:22.345Z,16.27
2022-12-27T23:59:52.183Z,15.27
